Flight Track Log - Related Links

Times and Time Zones

All times are in EST time to prevent confusion due to time zone crossing. See the AVN21 flight status page for this flight to view local times or setup timezone preferences in your user account.

Time Position Orientation Groundspeed Altitude Reporting Facility
EST Latitude Longitude Course Direction KTS MPH feet Rate Location/Type
Sun 05:34:54 AM -27.3952 153.1226 27° Northeast 115 132  Level FlightAware ADS-B
Sun 05:35:16 AM -27.3837 153.1292 27° Northeast 149 171 300 1,714 Climbing FlightAware ADS-B
Sun 05:35:36 AM -27.3710 153.1365 27° Northeast 141 162 1,200 2,400 Climbing FlightAware ADS-B
Sun 05:35:46 AM -27.3654 153.1413 37° Northeast 150 173 1,500 1,400 Climbing FlightAware ADS-B
Sun 05:36:06 AM -27.3542 153.1529 43° Northeast 170 196 1,900 1,350 Climbing FlightAware ADS-B
Sun 05:36:26 AM -27.3419 153.1646 40° Northeast 187 215 2,400 1,650 Climbing FlightAware ADS-B
Sun 05:36:46 AM -27.3281 153.1773 39° Northeast 200 230 3,000 1,600 Climbing FlightAware ADS-B
Sun 05:36:56 AM -27.3222 153.1836 44° Northeast 213 245 3,200 1,200 Climbing FlightAware ADS-B
Sun 05:37:06 AM -27.3167 153.1930 57° Northeast 230 265 3,400 1,200 Climbing FlightAware ADS-B
Sun 05:37:26 AM -27.3078 153.2194 69° East 259 298 3,800 1,650 Climbing FlightAware ADS-B
Sun 05:37:46 AM -27.3010 153.2458 74° East 280 322 4,500 1,950 Climbing FlightAware ADS-B
Sun 05:38:06 AM -27.2940 153.2735 74° East 298 343 5,100 1,800 Climbing FlightAware ADS-B
Sun 05:38:26 AM -27.2845 153.3064 72° East 319 367 5,700 1,950 Climbing FlightAware ADS-B
Sun 05:38:46 AM -27.2753 153.3388 72° East 335 386 6,400 2,550 Climbing FlightAware ADS-B
Sun 05:39:06 AM -27.2661 153.3726 73° East 339 390 7,400 3,000 Climbing FlightAware ADS-B
Sun 05:39:26 AM -27.2566 153.4055 72° East 345 397 8,400 2,850 Climbing FlightAware ADS-B
Sun 05:39:46 AM -27.2461 153.4407 71° East 354 407 9,300 2,760 Climbing FlightAware ADS-B
Sun 05:40:16 AM -27.2315 153.4917 72° East 364 419 10,700 3,100 Climbing FlightAware ADS-B
Sun 05:40:46 AM -27.2156 153.5472 72° East 365 420 12,400 3,400 Climbing FlightAware ADS-B
Sun 05:41:16 AM -27.1996 153.6026 72° East 368 423 14,100 3,191 Climbing FlightAware ADS-B
Sun 05:41:33 AM -27.1908 153.6322 72° East 384 442 14,900 2,625 Climbing FlightAware ADS-B
Sun 05:42:04 AM -27.1674 153.6889 65° Northeast 392 451 16,200 2,762 Climbing FlightAware ADS-B
Sun 05:42:36 AM -27.1331 153.7451 55° Northeast 409 471 17,800 2,903 Climbing FlightAware ADS-B
Sun 05:43:06 AM -27.1010 153.7978 56° Northeast 414 476 19,200 2,600 Climbing FlightAware ADS-B
Sun 05:43:36 AM -27.0694 153.8510 56° Northeast 427 491 20,400 2,400 Climbing FlightAware ADS-B
Sun 05:44:06 AM -27.0354 153.9079 56° Northeast 434 499 21,600 2,500 Climbing FlightAware ADS-B
Sun 05:44:36 AM -27.0020 153.9639 56° Northeast 439 505 22,900 2,500 Climbing FlightAware ADS-B
Sun 05:45:06 AM -26.9672 154.0215 56° Northeast 445 512 24,100 2,286 Climbing FlightAware ADS-B
Sun 05:45:18 AM -26.9533 154.0448 56° Northeast 446 513 24,500 1,800 Climbing FlightAware ADS-B
Sun 05:45:56 AM -26.9091 154.1176 56° Northeast 460 529 25,600 1,765 Climbing FlightAware ADS-B
Sun 05:46:26 AM -26.8746 154.1753 56° Northeast 468 539 26,500 2,100 Climbing FlightAware ADS-B
Sun 05:46:56 AM -26.8386 154.2363 57° Northeast 468 539 27,700 2,000 Climbing FlightAware ADS-B
Sun 05:47:26 AM -26.8012 154.3005 57° Northeast 476 548 28,500 1,500 Climbing FlightAware ADS-B
Sun 05:47:56 AM -26.7639 154.3623 56° Northeast 484 557 29,200 1,400 Climbing FlightAware ADS-B
Sun 05:48:26 AM -26.7259 154.4237 55° Northeast 492 566 29,900 1,200 Climbing FlightAware ADS-B
Sun 05:48:56 AM -26.6861 154.4878 55° Northeast 504 580 30,400 1,100 Climbing FlightAware ADS-B
Sun 05:49:26 AM -26.6470 154.5527 56° Northeast 511 588 31,000 1,200 Climbing FlightAware ADS-B
Sun 05:49:56 AM -26.6084 154.6183 57° Northeast 516 594 31,600 1,629 Climbing FlightAware ADS-B
Sun 05:50:36 AM -26.5551 154.7083 56° Northeast 510 587 32,900 1,629 Climbing FlightAware ADS-B
Sun 05:51:06 AM -26.5145 154.7732 55° Northeast 514 592 33,500 1,500 Climbing FlightAware ADS-B
Sun 05:51:36 AM -26.4757 154.8366 56° Northeast 510 587 34,400 1,800 Climbing FlightAware ADS-B
Sun 05:52:16 AM -26.4213 154.9246 55° Northeast 505 581 35,600 1,457 Climbing FlightAware ADS-B
Sun 05:52:46 AM -26.3845 154.9841 55° Northeast 508 585 36,100 900 Climbing FlightAware ADS-B
Sun 05:53:16 AM -26.3434 155.0511 56° Northeast 515 593 36,500 1,029 Climbing FlightAware ADS-B
Sun 05:53:56 AM -26.2888 155.1417 56° Northeast 510 587 37,300 1,286 Climbing FlightAware ADS-B
Sun 05:54:26 AM -26.2493 155.2050 55° Northeast 508 585 38,000 1,300 Climbing FlightAware ADS-B
Sun 05:54:56 AM -26.2101 155.2684 55° Northeast 507 583 38,600 1,100 Climbing FlightAware ADS-B
Sun 05:55:26 AM -26.1697 155.3346 56° Northeast 504 580 39,100 1,000 Climbing FlightAware ADS-B
Sun 05:55:56 AM -26.1321 155.3961 56° Northeast 503 579 39,600 900 Climbing FlightAware ADS-B
Sun 05:56:26 AM -26.0913 155.4628 56° Northeast 501 577 40,000 400 Climbing FlightAware ADS-B
Sun 05:56:56 AM -26.0523 155.5266 56° Northeast 503 579 40,000  Level FlightAware ADS-B
Sun 05:57:26 AM -26.0141 155.5885 56° Northeast 503 579 40,000  Level FlightAware ADS-B
Sun 05:57:56 AM -25.9747 155.6520 55° Northeast 503 579 40,000  Level FlightAware ADS-B
Sun 05:58:26 AM -25.9340 155.7177 55° Northeast 502 578 40,000  Level FlightAware ADS-B
Sun 05:58:56 AM -25.8961 155.7786 55° Northeast 503 579 40,000  Level FlightAware ADS-B
Sun 05:59:26 AM -25.8547 155.8452 55° Northeast 503 579 40,000  Level FlightAware ADS-B
Sun 05:59:56 AM -25.8143 155.9099 55° Northeast 503 579 40,000  Level FlightAware ADS-B
Sun 06:00:26 AM -25.7747 155.9731 55° Northeast 504 580 40,000 91 Level FlightAware ADS-B
Sun 06:01:02 AM -25.7270 156.0478 55° Northeast 495 570 40,100 86 Climbing Aus ATC (RADAR)
Sun 06:01:36 AM -25.6813 156.1226 56° Northeast 495 570 40,100 -150 Level Aus ATC (RADAR)
Sun 06:01:42 AM -25.6890 156.1090 56° Northeast 503 579 40,000  Descending FlightAware ADS-B
Sun 06:02:12 AM -25.6373 156.1994 56° Northeast 494 568 40,100  Climbing Aus ATC (RADAR)
Sun 06:02:30 AM -25.6340 156.1960 56° Northeast 503 579 40,000 -111 Descending FlightAware ADS-B
Sun 06:03:06 AM -25.5940 156.2600 55° Northeast 503 579 40,000  Level FlightAware ADS-B
Sun 06:03:42 AM -25.5530 156.3250 55° Northeast 503 579 40,000  Level FlightAware ADS-B
Sun 06:03:56 AM -25.5068 156.4277 55° Northeast 493 567 40,000  Level Aus ATC (RADAR)
Sun 06:04:36 AM -25.4569 156.5142 55° Northeast 493 567 40,000  Level Aus ATC (RADAR)
Sun 06:04:44 AM -25.4820 156.4360 57° Northeast 503 579 40,000  Level FlightAware ADS-B
Sun 06:05:06 AM -25.4192 156.5784 57° Northeast 492 566 40,000  Level Aus ATC (RADAR)
Sun 06:05:32 AM -25.4280 156.5220 57° Northeast 503 579 40,000  Level FlightAware ADS-B
Sun 06:05:51 AM -25.3613 156.6737 57° Northeast 491 565 40,000  Level Aus ATC (RADAR)
Sun 06:06:08 AM -25.3870 156.5870 57° Northeast 503 579 40,000  Level FlightAware ADS-B
Sun 06:06:21 AM -25.3233 156.7373 57° Northeast 489 563 40,000  Level Aus ATC (RADAR)
Sun 06:06:56 AM -25.2788 156.8105 57° Northeast 490 564 40,000  Level Aus ATC (RADAR)
Sun 06:07:01 AM -25.2725 156.8205 55° Northeast 490 564 40,000  Level Aus ATC (RADAR)
Sun 06:12:06 AM -24.9186 157.4155 57° Northeast 40,000  Level Aus ATC (Calculated)
Sun 06:14:00 AM -24.7858 157.6370 57° Northeast  Level FlightAware Approximate
Sun 06:15:00 AM -24.7157 157.7534 56° Northeast  Level FlightAware Approximate
Sun 06:15:06 AM -24.6803 157.8121 56° Northeast 40,000  Level Aus ATC (Calculated)
Sun 06:15:52 AM -24.6156 157.9192 56° Northeast 40,000  Level Aus ATC (Calculated)
Sun 06:17:00 AM -24.5359 158.0507 56° Northeast  Level FlightAware Approximate
Sun 06:18:00 AM -24.4656 158.1666 56° Northeast  Level FlightAware Approximate
Sun 06:19:00 AM -24.3951 158.2824 56° Northeast  Level FlightAware Approximate
Sun 06:20:00 AM -24.3246 158.3981 56° Northeast  Level FlightAware Approximate
Sun 06:21:00 AM -24.2540 158.5136 56° Northeast  Level FlightAware Approximate
Sun 06:22:00 AM -24.1832 158.6289 56° Northeast  Level FlightAware Approximate
Sun 06:23:00 AM -24.1124 158.7442 56° Northeast  Level FlightAware Approximate
Sun 06:24:00 AM -24.0415 158.8593 56° Northeast  Level FlightAware Approximate
Sun 06:25:00 AM -23.9706 158.9743 56° Northeast  Level FlightAware Approximate
Sun 06:26:00 AM -23.8995 159.0892 56° Northeast  Level FlightAware Approximate
Sun 06:27:00 AM -23.8284 159.2039 56° Northeast  Level FlightAware Approximate
Sun 06:28:00 AM -23.7571 159.3186 56° Northeast  Level FlightAware Approximate
Sun 06:28:00 AM -23.6224 159.5331 234° Southwest 37,000  Level Aus ATC (Calculated)
Sun 06:29:00 AM -23.6974 159.4215 234° Southwest  Level FlightAware Approximate
Sun 06:30:00 AM -23.6224 159.5331 54° Northeast  Level FlightAware Approximate
Sun 06:30:16 AM -23.4500 159.8080 235° Southwest 37,000  Level Aus ATC (Calculated)
Sun 06:32:00 AM -23.5746 159.6106 235° Southwest  Level FlightAware Approximate
Sun 06:33:00 AM -23.6463 159.4965 236° Southwest  Level FlightAware Approximate
Sun 06:34:00 AM -23.5746 159.6106 56° Northeast  Level FlightAware Approximate
Sun 06:35:00 AM -23.6463 159.4965 236° Southwest  Level FlightAware Approximate
Sun 06:36:00 AM -23.5746 159.6106 56° Northeast  Level FlightAware Approximate
Sun 06:37:00 AM -23.5986 159.5727 56° Northeast  Level FlightAware Approximate
Sun 06:38:00 AM -23.5270 159.6869 56° Northeast  Level FlightAware Approximate
Sun 06:38:51 AM -22.7458 160.9159 235° Southwest 37,000  Level Aus ATC (Calculated)
Sun 06:39:00 AM -23.4554 159.8009 56° Northeast  Level FlightAware Approximate
Sun 06:40:00 AM -22.6624 161.0456 55° Northeast  Level FlightAware Approximate
Sun 06:41:00 AM -22.5898 161.1582 55° Northeast  Level FlightAware Approximate
Sun 06:41:00 AM -22.5766 161.1786 55° Northeast 37,000  Level Aus ATC (Calculated)
Sun 06:42:00 AM -22.5040 161.2911 55° Northeast  Level FlightAware Approximate
Sun 06:43:00 AM -22.4312 161.4034 55° Northeast  Level FlightAware Approximate
Sun 06:44:00 AM -22.3583 161.5157 55° Northeast  Level FlightAware Approximate
Sun 06:45:00 AM -22.2854 161.6278 55° Northeast  Level FlightAware Approximate
Sun 06:46:00 AM -22.2124 161.7398 55° Northeast  Level FlightAware Approximate
Sun 06:47:00 AM -22.1393 161.8517 55° Northeast  Level FlightAware Approximate
Sun 06:48:00 AM -22.0662 161.9634 55° Northeast  Level FlightAware Approximate
Sun 06:49:00 AM -21.9930 162.0751 55° Northeast  Level FlightAware Approximate
Sun 06:50:00 AM -21.9196 162.1866 55° Northeast  Level FlightAware Approximate
Sun 06:51:00 AM -21.8463 162.2980 55° Northeast  Level FlightAware Approximate
Sun 06:51:00 AM -21.7189 162.4908 55° Northeast 37,000  Level Aus ATC (Calculated)
Sun 06:52:00 AM -21.6454 162.6019 55° Northeast  Level FlightAware Approximate
Sun 06:53:00 AM -21.5717 162.7129 55° Northeast  Level FlightAware Approximate
Sun 06:53:09 AM -21.5499 162.7457 54° Northeast 37,000  Level Aus ATC (Calculated)
Sun 06:55:00 AM -21.4134 162.9507 54° Northeast  Level FlightAware Approximate
Sun 06:56:00 AM -21.3395 163.0613 54° Northeast  Level FlightAware Approximate
Sun 06:56:00 AM -21.3236 163.0838 234° Southwest 1,500  Level Aus ATC (Calculated)
Sun 06:57:00 AM -21.3982 162.9738 234° Southwest  Level FlightAware Approximate
Sun 06:58:00 AM -21.3236 163.0838 54° Northeast  Level FlightAware Approximate
Sun 06:59:00 AM -21.3982 162.9738 234° Southwest  Level FlightAware Approximate
Sun 07:00:00 AM -21.3236 163.0838 54° Northeast  Level FlightAware Approximate
Sun 07:01:00 AM -21.3982 162.9738 234° Southwest  Level FlightAware Approximate
Sun 07:02:00 AM -21.3236 163.0838 54° Northeast  Level FlightAware Approximate
Sun 07:03:00 AM -21.3982 162.9738 234° Southwest  Level FlightAware Approximate
Sun 07:04:00 AM -21.3236 163.0838 54° Northeast  Level FlightAware Approximate
Sun 07:05:00 AM -21.3982 162.9738 234° Southwest  Level FlightAware Approximate
Sun 07:06:00 AM -21.3236 163.0838 54° Northeast  Level FlightAware Approximate
Sun 07:07:00 AM -21.3982 162.9738 234° Southwest  Level FlightAware Approximate
Sun 07:08:00 AM -21.3426 163.0559 54° Northeast  Level FlightAware Approximate
Sun 07:09:00 AM -21.2679 163.1658 54° Northeast  Level FlightAware Approximate
Sun 07:10:00 AM -21.1931 163.2757 54° Northeast  Level FlightAware Approximate
Sun 07:11:00 AM -21.1183 163.3854 54° Northeast  Level FlightAware Approximate
Sun 07:12:00 AM -21.0434 163.4950 54° Northeast  Level FlightAware Approximate
Sun 07:13:00 AM -20.9685 163.6046 54° Northeast  Level FlightAware Approximate
Sun 07:14:00 AM -20.8934 163.7140 54° Northeast  Level FlightAware Approximate
Sun 07:15:00 AM -20.8183 163.8233 54° Northeast  Level FlightAware Approximate
Sun 07:16:00 AM -20.7431 163.9325 54° Northeast  Level FlightAware Approximate
Sun 07:17:00 AM -20.6679 164.0415 54° Northeast  Level FlightAware Approximate
Sun 07:18:00 AM -20.5926 164.1505 54° Northeast  Level FlightAware Approximate
Sun 07:19:00 AM -20.5172 164.2594 54° Northeast  Level FlightAware Approximate
Sun 07:20:00 AM -20.4417 164.3681 53° Northeast  Level FlightAware Approximate
Sun 07:21:00 AM -20.3662 164.4768 53° Northeast  Level FlightAware Approximate
Sun 07:22:00 AM -20.2906 164.5853 53° Northeast  Level FlightAware Approximate
Sun 07:23:00 AM -20.2149 164.6938 53° Northeast  Level FlightAware Approximate
Sun 07:24:00 AM -20.1392 164.8021 53° Northeast  Level FlightAware Approximate
Sun 07:25:00 AM -20.0634 164.9103 53° Northeast  Level FlightAware Approximate
Sun 07:26:00 AM -19.9876 165.0185 53° Northeast  Level FlightAware Approximate
Sun 07:27:00 AM -19.9117 165.1265 53° Northeast  Level FlightAware Approximate
Sun 07:28:00 AM -19.8357 165.2344 53° Northeast  Level FlightAware Approximate
Sun 07:29:00 AM -19.7596 165.3422 53° Northeast  Level FlightAware Approximate
Sun 07:30:00 AM -19.6835 165.4499 53° Northeast  Level FlightAware Approximate
Sun 07:31:00 AM -19.6073 165.5575 53° Northeast  Level FlightAware Approximate
Sun 07:32:00 AM -19.5311 165.6650 53° Northeast  Level FlightAware Approximate
Sun 07:33:00 AM -19.4548 165.7724 53° Northeast  Level FlightAware Approximate
Sun 07:34:00 AM -19.3784 165.8797 53° Northeast  Level FlightAware Approximate
Sun 07:35:00 AM -19.3020 165.9869 53° Northeast  Level FlightAware Approximate
Sun 07:36:00 AM -19.2255 166.0940 53° Northeast  Level FlightAware Approximate
Sun 07:37:00 AM -19.1489 166.2010 53° Northeast  Level FlightAware Approximate
Sun 07:38:00 AM -19.0723 166.3079 53° Northeast  Level FlightAware Approximate
Sun 07:39:00 AM -18.9956 166.4147 53° Northeast  Level FlightAware Approximate
Sun 07:40:00 AM -18.9189 166.5215 53° Northeast  Level FlightAware Approximate
Sun 07:41:00 AM -18.8421 166.6281 53° Northeast  Level FlightAware Approximate
Sun 07:42:00 AM -18.7652 166.7346 53° Northeast  Level FlightAware Approximate
Sun 07:43:00 AM -18.6883 166.8410 53° Northeast  Level FlightAware Approximate
Sun 07:44:00 AM -18.6113 166.9473 53° Northeast  Level FlightAware Approximate
Sun 07:45:00 AM -18.5343 167.0535 53° Northeast  Level FlightAware Approximate
Sun 07:46:00 AM -18.4572 167.1597 53° Northeast  Level FlightAware Approximate
Sun 07:47:00 AM -18.3800 167.2657 53° Northeast  Level FlightAware Approximate
Sun 07:48:00 AM -18.3028 167.3716 52° Northeast  Level FlightAware Approximate
Sun 07:49:00 AM -18.2255 167.4775 52° Northeast  Level FlightAware Approximate
Sun 07:50:00 AM -18.1482 167.5832 52° Northeast  Level FlightAware Approximate
Sun 07:51:00 AM -18.0708 167.6889 52° Northeast  Level FlightAware Approximate
Sun 07:52:00 AM -17.9933 167.7944 52° Northeast  Level FlightAware Approximate
Sun 07:53:00 AM -17.9158 167.8999 52° Northeast  Level FlightAware Approximate
Sun 07:54:00 AM -17.8383 168.0053 52° Northeast  Level FlightAware Approximate
Sun 07:55:00 AM -17.7607 168.1105 52° Northeast  Level FlightAware Approximate
Sun 07:56:00 AM -17.6830 168.2157 52° Northeast  Level FlightAware Approximate
Sun 07:57:00 AM -17.6621 168.2439 54° Northeast  Level FlightAware Approximate
Sun 07:58:00 AM -17.6993 168.3198 54° Northeast  Level Estimated
Sun 07:59:00 AM -17.6993 168.3198 54° Northeast  Level Estimated
Sun 08:00:00 AM -17.6993 168.3198 54° Northeast  Level Estimated
Sun 08:01:00 AM -17.6993 168.3198 54° Northeast  Level Estimated

Login

Don't have an account? Register now (free) for customized features, flight alerts, and more!